Time;durP1;ratioP1;P1;durP2;ratioP2;P2;SDS_P1;SDS_P2;PMS_P1;PMS_P2;Temp;Humidity;BMP_temperature;BMP_pressure;BME280_temperature;BME280_humidity;BME280_pressure;Samples;Min_cycle;Max_cycle;Signal;HPM_P1;HPM_P2
2023/10/28 00:00:44;;;;;;;6.70;3.80;;;;;;;7.58;100.00;99220.47;4932383;28;20024;-79
2023/10/28 00:03:10;;;;;;;10.40;4.80;;;;;;;7.71;100.00;99230.50;4940842;29;20047;-79
2023/10/28 00:05:35;;;;;;;7.80;4.35;;;;;;;7.57;100.00;99227.63;4938813;28;20027;-79
2023/10/28 00:08:01;;;;;;;6.80;4.43;;;;;;;7.72;100.00;99234.78;4945693;29;20048;-79
2023/10/28 00:10:27;;;;;;;;;;;;;;;7.70;100.00;99234.97;4948841;28;20025;-79
2023/10/28 00:12:53;;;;;;;9.35;4.93;;;;;;;7.72;100.00;99240.09;4948247;28;20445;-78
2023/10/28 00:15:18;;;;;;;8.18;4.60;;;;;;;7.42;100.00;99220.63;4948908;28;20038;-79
2023/10/28 00:17:47;;;;;;;9.50;5.40;;;;;;;7.63;100.00;99249.97;4946205;28;20034;-79
2023/10/28 00:20:17;;;;;;;7.18;4.30;;;;;;;7.72;100.00;99248.06;4949760;28;20101;-77
2023/10/28 00:22:47;;;;;;;9.23;5.07;;;;;;;7.66;100.00;99249.63;4932497;28;20043;-79
2023/10/28 00:25:15;;;;;;;11.10;5.30;;;;;;;7.76;100.00;99254.69;4951911;28;20027;-79
2023/10/28 00:27:42;;;;;;;12.65;5.78;;;;;;;7.79;100.00;99257.78;4942425;28;20031;-78
2023/10/28 00:30:07;;;;;;;;;;;;;;;7.64;100.00;99248.16;4959921;28;20491;-78
2023/10/28 00:32:33;;;;;;;13.32;5.60;;;;;;;7.76;100.00;99262.66;4959950;28;19910;-78
2023/10/28 00:34:59;;;;;;;7.85;4.95;;;;;;;7.82;100.00;99259.28;4960020;28;20032;-79
2023/10/28 00:37:26;;;;;;;10.68;5.88;;;;;;;7.83;100.00;99255.59;4948948;28;20023;-78
2023/10/28 00:39:52;;;;;;;13.50;5.20;;;;;;;7.69;100.00;99243.13;4950066;29;20031;-79
2023/10/28 00:42:17;;;;;;;11.35;6.20;;;;;;;7.60;100.00;99239.72;4916401;29;20061;-77
2023/10/28 00:44:43;;;;;;;14.60;5.43;;;;;;;7.61;100.00;99247.50;4941302;28;20118;-78
2023/10/28 00:47:09;;;;;;;11.50;5.35;;;;;;;7.72;100.00;99264.00;4927964;29;20034;-79
2023/10/28 00:49:36;;;;;;;8.48;5.20;;;;;;;7.83;100.00;99255.59;4957353;28;20055;-79
2023/10/28 00:52:01;;;;;;;10.20;6.07;;;;;;;7.80;100.00;99255.97;4938429;28;20413;-79
2023/10/28 00:54:28;;;;;;;17.98;5.30;;;;;;;7.77;100.00;99251.84;4967982;28;20035;-79
2023/10/28 00:56:56;;;;;;;12.25;6.00;;;;;;;7.76;100.00;99249.38;4967563;28;20039;-79
2023/10/28 00:59:21;;;;;;;10.73;6.60;;;;;;;7.76;100.00;99249.38;4956878;28;20016;-79
2023/10/28 01:01:47;;;;;;;13.13;6.18;;;;;;;7.75;100.00;99253.84;4948415;28;20712;-79
2023/10/28 01:04:12;;;;;;;12.03;5.13;;;;;;;7.88;100.00;99255.88;4922839;29;20024;-78
2023/10/28 01:06:38;;;;;;;7.30;4.90;;;;;;;7.83;100.00;99250.28;4962446;28;20043;-78
2023/10/28 01:09:03;;;;;;;13.70;5.20;;;;;;;7.88;100.00;99255.88;4945888;28;20038;-79
2023/10/28 01:11:29;;;;;;;12.50;5.30;;;;;;;7.76;100.00;99242.22;4967942;28;20046;-78
2023/10/28 01:13:54;;;;;;;10.77;5.67;;;;;;;7.84;100.00;99249.28;4937174;28;20039;-79
2023/10/28 01:16:22;;;;;;;9.15;6.05;;;;;;;7.83;100.00;99251.09;4939663;29;20027;-79
2023/10/28 01:18:54;;;;;;;8.98;5.60;;;;;;;7.91;100.00;99252.84;4960097;28;20039;-79
2023/10/28 01:21:20;;;;;;;10.10;5.50;;;;;;;7.86;100.00;99254.41;4923317;28;20086;-79
2023/10/28 01:23:47;;;;;;;13.65;5.97;;;;;;;7.85;100.00;99250.94;4947228;28;20030;-78
2023/10/28 01:26:12;;;;;;;9.90;6.40;;;;;;;7.85;100.00;99253.59;4939415;29;20032;-79
2023/10/28 01:28:38;;;;;;;12.05;6.13;;;;;;;7.93;100.00;99261.47;4971167;28;20495;-79
2023/10/28 01:31:04;;;;;;;9.95;5.80;;;;;;;7.89;100.00;99262.88;4961960;28;20031;-79
2023/10/28 01:33:29;;;;;;;11.10;5.40;;;;;;;7.95;100.00;99258.63;4939976;29;20109;-79
2023/10/28 01:35:54;;;;;;;12.30;6.27;;;;;;;7.88;100.00;99249.75;4941866;28;20027;-78
2023/10/28 01:38:20;;;;;;;13.80;6.43;;;;;;;7.92;100.00;99253.69;4971406;28;20038;-79
2023/10/28 01:40:46;;;;;;;9.90;5.70;;;;;;;7.92;100.00;99254.53;4952641;28;21008;-79
2023/10/28 01:43:11;;;;;;;12.63;6.33;;;;;;;7.94;100.00;99271.09;4955966;29;20042;-79
2023/10/28 01:45:36;;;;;;;11.43;6.53;;;;;;;7.94;100.00;99267.63;4971500;28;20027;-78
2023/10/28 01:48:02;;;;;;;10.43;5.67;;;;;;;7.94;100.00;99263.13;4938871;29;20130;-79
2023/10/28 01:50:27;;;;;;;16.83;5.82;;;;;;;7.90;100.00;99267.16;4939380;29;20123;-79
2023/10/28 01:52:52;;;;;;;12.97;6.43;;;;;;;7.95;100.00;99269.28;4955870;28;20122;-78
2023/10/28 01:55:18;;;;;;;11.93;5.97;;;;;;;7.96;100.00;99271.75;4948347;28;20059;-79
2023/10/28 01:57:44;;;;;;;8.93;5.93;;;;;;;7.87;100.00;99269.38;4943401;28;20039;-79
2023/10/28 02:00:12;;;;;;;12.32;6.95;;;;;;;7.88;100.00;99277.13;4936805;29;20039;-78
2023/10/28 02:02:39;;;;;;;12.07;6.70;;;;;;;7.95;100.00;99283.38;4955912;29;20058;-79
2023/10/28 02:05:04;;;;;;;11.20;6.18;;;;;;;7.93;100.00;99289.88;4950293;28;20035;-79
2023/10/28 02:07:30;;;;;;;9.10;5.68;;;;;;;8.01;100.00;99293.28;4937743;29;20135;-79
2023/10/28 02:09:56;;;;;;;11.67;6.70;;;;;;;7.99;100.00;99292.66;4968849;28;20034;-79
2023/10/28 02:12:21;;;;;;;11.10;7.28;;;;;;;7.88;100.00;99284.28;4938622;28;20040;-78
2023/10/28 02:14:48;;;;;;;17.95;5.95;;;;;;;7.91;100.00;99295.38;4933363;28;20130;-79
2023/10/28 02:17:13;;;;;;;10.03;6.20;;;;;;;7.98;100.00;99306.97;4932405;29;20066;-78
2023/10/28 02:19:39;;;;;;;11.13;6.55;;;;;;;7.74;100.00;99293.88;4947478;28;20036;-78
2023/10/28 02:22:04;;;;;;;12.63;6.00;;;;;;;7.95;100.00;99303.81;4972837;28;20064;-78
2023/10/28 02:24:29;;;;;;;12.02;5.85;;;;;;;7.87;100.00;99298.59;4976042;28;20034;-79
2023/10/28 02:26:55;;;;;;;10.43;6.57;;;;;;;7.78;100.00;99289.88;4967213;28;20424;-79
2023/10/28 02:29:21;;;;;;;14.05;7.78;;;;;;;7.94;100.00;99295.03;4952595;28;20069;-79
2023/10/28 02:31:48;;;;;;;14.75;6.85;;;;;;;7.94;100.00;99289.72;4945207;28;20118;-78
2023/10/28 02:34:14;;;;;;;10.75;5.72;;;;;;;7.96;100.00;99287.69;4952839;28;20446;-79
2023/10/28 02:36:41;;;;;;;14.00;6.85;;;;;;;8.02;100.00;99294.94;4967203;28;20027;-77
2023/10/28 02:39:07;;;;;;;11.73;6.70;;;;;;;8.00;100.00;99286.31;4966941;28;20027;-78
2023/10/28 02:41:32;;;;;;;10.33;6.03;;;;;;;8.05;100.00;99285.75;4947074;28;20702;-78
2023/10/28 02:43:58;;;;;;;15.30;6.30;;;;;;;7.98;100.00;99284.84;4967835;28;20031;-78
2023/10/28 02:46:24;;;;;;;;;;;;;;;7.94;100.00;99283.56;4951694;28;20480;-78
2023/10/28 02:48:51;;;;;;;11.02;5.32;;;;;;;7.99;100.00;99282.03;4951002;28;19915;-77
2023/10/28 02:51:17;;;;;;;10.75;6.60;;;;;;;8.01;100.00;99293.28;4932416;28;20496;-78
2023/10/28 02:53:43;;;;;;;;;;;;;;;8.04;100.00;99292.91;4965625;28;20442;-78
2023/10/28 02:56:08;;;;;;;9.85;5.47;;;;;;;7.85;100.00;99277.50;4952385;28;19914;-77
2023/10/28 02:58:35;;;;;;;16.83;5.95;;;;;;;7.80;100.00;99283.38;5033460;28;20038;-78
2023/10/28 03:01:08;;;;;;;11.95;5.35;;;;;;;7.80;100.00;99293.16;4951885;29;20031;-77
2023/10/28 03:03:33;;;;;;;11.25;4.95;;;;;;;7.75;100.00;99284.88;4967821;28;20038;-79
2023/10/28 03:05:59;;;;;;;8.77;5.30;;;;;;;7.91;100.00;99306.00;4949762;28;20016;-79
2023/10/28 03:08:24;;;;;;;10.00;5.40;;;;;;;7.95;100.00;99301.97;4938387;28;20035;-79
2023/10/28 03:10:49;;;;;;;11.80;5.33;;;;;;;8.00;100.00;99302.25;4933435;29;20042;-79
2023/10/28 03:13:15;;;;;;;10.37;5.10;;;;;;;7.66;100.00;99280.69;4940214;28;20029;-79
2023/10/28 03:15:40;;;;;;;11.43;5.93;;;;;;;7.85;100.00;99298.75;4932535;29;20024;-79
2023/10/28 03:18:06;;;;;;;9.53;5.40;;;;;;;7.86;100.00;99292.44;4950661;28;20491;-79
2023/10/28 03:20:31;;;;;;;10.13;5.20;;;;;;;8.00;100.00;99302.25;4952947;28;20031;-79
2023/10/28 03:22:56;;;;;;;8.70;5.50;;;;;;;7.95;100.00;99294.00;4935554;28;20492;-79
2023/10/28 03:25:22;;;;;;;9.90;6.13;;;;;;;7.86;100.00;99284.47;4967032;28;20033;-79
2023/10/28 03:27:49;;;;;;;11.00;6.57;;;;;;;7.75;100.00;99275.13;4950866;28;20496;-79
2023/10/28 03:30:14;;;;;;;9.38;5.40;;;;;;;7.93;100.00;99301.34;4943137;28;20042;-78
2023/10/28 03:32:39;;;;;;;11.87;5.50;;;;;;;7.68;100.00;99284.81;4926207;28;20027;-79
2023/10/28 03:35:05;;;;;;;10.67;5.60;;;;;;;7.87;100.00;99293.28;4935378;28;20403;-79
2023/10/28 03:37:32;;;;;;;9.05;5.65;;;;;;;7.91;100.00;99298.03;4951111;29;20043;-79
2023/10/28 03:39:59;;;;;;;9.17;5.37;;;;;;;7.83;100.00;99285.66;4949710;29;20081;-80
2023/10/28 03:42:24;;;;;;;10.02;5.93;;;;;;;7.70;100.00;99285.47;4937396;28;20291;-79
2023/10/28 03:44:50;;;;;;;7.70;4.50;;;;;;;7.89;100.00;99297.41;4934484;28;20133;-78
2023/10/28 03:47:15;;;;;;;11.30;5.47;;;;;;;7.76;100.00;99287.38;4950325;28;20034;-79
2023/10/28 03:49:41;;;;;;;8.37;4.70;;;;;;;7.90;100.00;99299.03;4933666;29;20043;-78
2023/10/28 03:52:06;;;;;;;9.17;5.23;;;;;;;7.93;100.00;99296.00;4949945;29;20043;-79
2023/10/28 03:54:32;;;;;;;14.25;6.07;;;;;;;7.74;100.00;99289.38;4933938;29;20019;-79
2023/10/28 03:56:57;;;;;;;6.90;4.80;;;;;;;7.82;100.00;99297.28;4965820;28;20043;-79
2023/10/28 03:59:22;;;;;;;6.60;4.27;;;;;;;7.90;100.00;99299.03;4950663;28;20027;-79
2023/10/28 04:01:48;;;;;;;10.10;5.03;;;;;;;7.99;100.00;99300.63;4965788;28;20085;-79
2023/10/28 04:04:13;;;;;;;7.27;4.83;;;;;;;7.92;100.00;99294.38;4965709;28;20031;-79
2023/10/28 04:06:38;;;;;;;9.80;5.70;;;;;;;7.76;100.00;99287.38;4945714;28;20035;-78
2023/10/28 04:09:04;;;;;;;7.38;4.40;;;;;;;7.87;100.00;99298.59;4947999;29;20055;-78
2023/10/28 04:11:29;;;;;;;8.07;4.97;;;;;;;7.87;100.00;99294.09;4951223;28;20030;-78
2023/10/28 04:13:54;;;;;;;6.20;4.30;;;;;;;7.89;100.00;99294.75;4965455;28;20031;-79
2023/10/28 04:16:21;;;;;;;10.60;4.77;;;;;;;7.92;100.00;99296.22;4965402;28;20027;-78
2023/10/28 04:18:47;;;;;;;9.82;5.63;;;;;;;7.94;100.00;99287.06;4965289;28;20030;-78
2023/10/28 04:21:12;;;;;;;7.22;4.72;;;;;;;7.93;100.00;99293.34;4950731;28;20070;-79
2023/10/28 04:23:38;;;;;;;8.57;4.83;;;;;;;7.82;100.00;99288.50;4944645;28;20049;-79
2023/10/28 04:26:04;;;;;;;7.20;4.40;;;;;;;7.73;100.00;99281.63;5033848;28;20037;-78
2023/10/28 04:28:29;;;;;;;8.63;4.77;;;;;;;7.77;100.00;99282.88;4941690;28;20106;-78
2023/10/28 04:30:58;;;;;;;6.77;4.97;;;;;;;7.88;100.00;99290.44;4950731;28;20037;-79
2023/10/28 04:33:25;;;;;;;9.15;5.18;;;;;;;7.92;100.00;99291.72;4950191;28;20267;-78
2023/10/28 04:35:54;;;;;;;8.85;4.50;;;;;;;7.97;100.00;99288.53;4949649;28;20038;-78
2023/10/28 04:38:20;;;;;;;9.77;5.35;;;;;;;7.97;100.00;99288.53;4949001;28;20484;-78
2023/10/28 04:40:46;;;;;;;10.73;5.38;;;;;;;7.95;100.00;99279.91;4950480;28;20042;-78
2023/10/28 04:43:12;;;;;;;14.82;5.72;;;;;;;7.96;100.00;99282.38;4949178;28;20019;-78
2023/10/28 04:45:41;;;;;;;9.60;4.68;;;;;;;8.02;100.00;99283.47;4950575;28;20023;-78
2023/10/28 04:48:09;;;;;;;10.20;4.55;;;;;;;8.06;100.00;99278.66;4947854;28;20040;-79
2023/10/28 04:50:34;;;;;;;7.90;5.03;;;;;;;7.79;100.00;99264.94;4935041;28;20031;-78
2023/10/28 04:53:00;;;;;;;9.65;4.78;;;;;;;7.73;100.00;99261.19;4941029;28;20024;-79
2023/10/28 04:55:25;;;;;;;10.40;5.43;;;;;;;7.73;100.00;99273.66;4948611;28;20511;-79
2023/10/28 04:57:51;;;;;;;12.80;5.03;;;;;;;7.84;100.00;99289.13;4955374;28;20110;-78
2023/10/28 05:00:17;;;;;;;9.73;4.80;;;;;;;7.90;100.00;99300.88;4963400;28;20035;-78
2023/10/28 05:02:42;;;;;;;8.05;5.05;;;;;;;7.73;100.00;99284.28;4964682;28;20035;-79
2023/10/28 05:05:07;;;;;;;7.90;4.70;;;;;;;7.87;100.00;99302.06;4948779;28;20023;-78
2023/10/28 05:07:33;;;;;;;10.35;5.00;;;;;;;7.82;100.00;99299.13;4946618;29;20110;-78
2023/10/28 05:09:59;;;;;;;11.20;5.10;;;;;;;7.83;100.00;99312.22;4945116;28;20122;-79
2023/10/28 05:12:24;;;;;;;9.85;6.18;;;;;;;7.85;100.00;99312.06;4944561;28;20197;-79
2023/10/28 05:14:50;;;;;;;7.43;4.70;;;;;;;7.80;100.00;99299.31;4928973;29;20036;-78
2023/10/28 05:17:16;;;;;;;9.67;5.70;;;;;;;7.79;100.00;99302.94;4948438;28;20275;-78
2023/10/28 05:19:41;;;;;;;8.70;5.43;;;;;;;7.69;100.00;99296.25;4948606;28;20039;-78
2023/10/28 05:22:08;;;;;;;8.20;5.17;;;;;;;7.79;100.00;99307.44;4948684;28;20024;-78
2023/10/28 05:24:33;;;;;;;10.30;5.10;;;;;;;7.64;100.00;99298.63;4948589;28;20659;-78
2023/10/28 05:26:59;;;;;;;9.48;5.53;;;;;;;7.81;100.00;99305.44;4946861;28;20027;-78
2023/10/28 05:29:24;;;;;;;13.57;5.43;;;;;;;7.86;100.00;99307.56;4943274;28;20043;-79
2023/10/28 05:31:50;;;;;;;9.45;4.55;;;;;;;7.87;100.00;99314.53;4958416;28;20031;-79
2023/10/28 05:34:15;;;;;;;7.70;4.43;;;;;;;7.82;100.00;99301.78;4932576;29;20058;-78
2023/10/28 05:36:40;;;;;;;7.63;5.23;;;;;;;7.82;100.00;99302.63;4942079;29;20094;-78
2023/10/28 05:39:07;;;;;;;5.80;4.20;;;;;;;7.70;100.00;99295.22;4940440;28;20042;-79
2023/10/28 05:41:32;;;;;;;;;;;;;;;7.88;100.00;99306.38;4948506;28;20118;-78
2023/10/28 05:43:57;;;;;;;8.52;4.05;;;;;;;7.96;100.00;99303.66;4964140;28;20365;-78
2023/10/28 05:46:23;;;;;;;10.70;4.10;;;;;;;7.89;100.00;99293.91;4964490;28;20027;-79
2023/10/28 05:48:50;;;;;;;6.50;3.97;;;;;;;7.71;100.00;99299.56;4950053;28;20114;-78
2023/10/28 05:51:16;;;;;;;6.90;3.40;;;;;;;7.72;100.00;99301.19;4946981;29;20510;-78
2023/10/28 05:53:41;;;;;;;;;;;;;;;7.83;100.00;99317.53;4944625;28;20567;-78
2023/10/28 05:56:07;;;;;;;5.55;3.25;;;;;;;7.59;100.00;99302.63;4941470;28;20052;-78
2023/10/28 05:58:32;;;;;;;8.53;3.50;;;;;;;7.47;100.00;99300.56;4945486;28;20034;-78
2023/10/28 06:00:59;;;;;;;5.40;3.70;;;;;;;7.53;100.00;99324.59;4948269;28;20110;-78
2023/10/28 06:03:26;;;;;;;5.88;4.43;;;;;;;7.68;100.00;99337.09;4950899;29;20059;-78
2023/10/28 06:05:52;;;;;;;4.80;3.45;;;;;;;7.64;100.00;99336.63;4944933;28;20031;-78
2023/10/28 06:08:17;;;;;;;5.53;3.60;;;;;;;7.46;100.00;99330.78;4944505;29;20093;-78
2023/10/28 06:10:45;;;;;;;7.28;3.33;;;;;;;7.51;100.00;99336.38;4967519;28;20026;-78
2023/10/28 06:13:11;;;;;;;6.90;3.70;;;;;;;7.59;100.00;99339.81;4952891;28;20031;-78
2023/10/28 06:15:37;;;;;;;6.18;4.55;;;;;;;7.60;100.00;99338.81;4951456;28;20411;-79
2023/10/28 06:18:03;;;;;;;6.40;3.90;;;;;;;7.59;100.00;99329.19;4945718;28;20518;-78
2023/10/28 06:20:30;;;;;;;7.10;3.47;;;;;;;7.61;100.00;99332.50;4951506;28;20038;-78
2023/10/28 06:22:56;;;;;;;7.15;4.32;;;;;;;7.81;100.00;99342.63;4945971;28;20069;-78
2023/10/28 06:25:21;;;;;;;5.97;4.85;;;;;;;7.82;100.00;99349.63;4948669;28;20036;-78
2023/10/28 06:27:49;;;;;;;6.00;4.03;;;;;;;7.65;100.00;99340.09;4951087;29;20039;-78
2023/10/28 06:30:15;;;;;;;7.13;4.07;;;;;;;7.58;100.00;99337.34;4952179;28;20050;-77
2023/10/28 06:32:41;;;;;;;6.90;4.17;;;;;;;7.67;100.00;99357.53;4967792;28;20488;-78
2023/10/28 06:35:07;;;;;;;8.15;4.55;;;;;;;7.47;100.00;99349.22;4952286;28;20101;-78
2023/10/28 06:37:32;;;;;;;8.85;5.30;;;;;;;7.64;100.00;99368.50;4952115;28;20031;-78
2023/10/28 06:40:00;;;;;;;6.97;4.15;;;;;;;7.72;100.00;99379.06;4932132;29;20036;-78
2023/10/28 06:42:26;;;;;;;6.90;4.32;;;;;;;7.60;100.00;99361.88;4951002;29;20035;-78
2023/10/28 06:44:51;;;;;;;5.90;4.20;;;;;;;7.63;100.00;99374.00;4952448;28;20057;-78
2023/10/28 06:47:17;;;;;;;8.27;4.93;;;;;;;7.57;100.00;99365.72;4952129;28;20043;-78
2023/10/28 06:49:43;;;;;;;;;;;;;;;7.80;100.00;99378.19;4945486;28;20031;-78
2023/10/28 06:52:08;;;;;;;8.13;4.85;;;;;;;7.54;100.00;99357.31;4950630;28;19915;-78
2023/10/28 06:54:33;;;;;;;8.80;5.23;;;;;;;7.56;100.00;99372.06;4931186;29;20062;-78
2023/10/28 06:56:59;;;;;;;6.17;3.93;;;;;;;7.61;100.00;99379.50;4950286;28;20066;-79
2023/10/28 06:59:25;;;;;;;6.57;4.35;;;;;;;7.54;100.00;99374.06;4950323;28;20042;-79
2023/10/28 07:01:52;;;;;;;8.90;5.10;;;;;;;7.52;100.00;99376.06;4951072;28;20055;-79
2023/10/28 07:04:17;;;;;;;7.55;4.63;;;;;;;7.56;100.00;99365.91;4934796;28;20126;-78
2023/10/28 07:06:42;;;;;;;7.43;4.20;;;;;;;7.33;100.00;99350.78;4942662;28;20122;-78
2023/10/28 07:09:08;;;;;;;6.17;4.03;;;;;;;7.42;100.00;99370.13;4945647;28;20089;-77
2023/10/28 07:11:33;;;;;;;9.77;4.20;;;;;;;7.43;100.00;99370.97;4960604;28;20026;-78
2023/10/28 07:13:58;;;;;;;7.10;4.80;;;;;;;7.55;100.00;99373.03;4944997;28;20039;-78
2023/10/28 07:16:23;;;;;;;7.37;4.20;;;;;;;7.59;100.00;99371.69;4958887;28;20031;-77
2023/10/28 07:18:49;;;;;;;8.10;4.73;;;;;;;7.48;100.00;99364.13;4944087;28;20028;-78
2023/10/28 07:21:14;;;;;;;7.10;4.38;;;;;;;7.47;100.00;99372.25;4934176;29;20074;-78
2023/10/28 07:23:40;;;;;;;7.45;3.90;;;;;;;7.63;100.00;99387.28;4966900;28;20031;-78
2023/10/28 07:26:06;;;;;;;6.35;3.58;;;;;;;7.60;100.00;99372.50;4950079;28;20563;-78
2023/10/28 07:28:34;;;;;;;7.35;4.28;;;;;;;7.60;100.00;99368.03;4946670;28;20036;-78
2023/10/28 07:31:01;;;;;;;11.45;4.55;;;;;;;7.54;100.00;99368.75;4950887;28;20039;-78
2023/10/28 07:33:26;;;;;;;6.70;4.50;;;;;;;7.40;100.00;99366.84;4959072;28;20039;-78
2023/10/28 07:35:52;;;;;;;6.97;3.90;;;;;;;7.58;100.00;99385.97;4934908;29;20019;-79
2023/10/28 07:38:18;;;;;;;6.20;3.83;;;;;;;7.60;100.00;99378.66;4945178;28;20412;-78
2023/10/28 07:40:44;;;;;;;8.82;4.25;;;;;;;7.57;100.00;99379.00;4952020;28;20059;-78
2023/10/28 07:43:11;;;;;;;6.85;3.97;;;;;;;7.57;100.00;99384.31;4966154;28;20043;-78
2023/10/28 07:45:38;;;;;;;9.68;4.60;;;;;;;7.57;100.00;99396.78;4961358;28;20015;-78
2023/10/28 07:48:06;;;;;;;11.00;4.63;;;;;;;7.64;100.00;99400.38;4943571;28;20114;-78
2023/10/28 07:50:39;;;;;;;6.72;4.55;;;;;;;7.51;100.00;99392.97;4958182;28;20054;-79
2023/10/28 07:53:05;;;;;;;9.15;5.47;;;;;;;7.68;100.00;99399.03;4933842;29;20070;-78
2023/10/28 07:55:31;;;;;;;10.43;4.88;;;;;;;7.92;100.00;99418.47;4949790;28;20055;-78
2023/10/28 07:57:57;;;;;;;5.88;3.92;;;;;;;7.76;100.00;99387.50;4965096;28;20043;-78
2023/10/28 08:00:23;;;;;;;7.07;3.37;;;;;;;7.95;100.00;99387.03;4941928;28;20043;-78
2023/10/28 08:02:49;;;;;;;8.00;4.65;;;;;;;7.98;100.00;99388.50;4949602;28;20038;-78
2023/10/28 08:05:15;;;;;;;5.68;3.10;;;;;;;7.91;100.00;99383.06;4963518;28;20047;-79
2023/10/28 08:07:40;;;;;;;5.15;3.50;;;;;;;7.64;100.00;99352.56;4949711;28;20023;-78
2023/10/28 08:10:06;;;;;;;8.30;4.20;;;;;;;7.88;100.00;99370.16;4949856;29;20042;-78
2023/10/28 08:12:32;;;;;;;7.80;3.50;;;;;;;7.82;100.00;99370.88;4951333;28;20055;-78
2023/10/28 08:15:02;;;;;;;5.57;4.03;;;;;;;7.95;100.00;99368.41;4949794;28;20126;-78
2023/10/28 08:17:29;;;;;;;7.32;4.05;;;;;;;7.88;100.00;99362.16;4949400;28;20043;-77
2023/10/28 08:19:54;;;;;;;7.22;4.88;;;;;;;8.07;100.00;99373.31;4950072;28;20027;-78
2023/10/28 08:22:20;;;;;;;5.73;3.30;;;;;;;8.03;100.00;99368.38;4951099;28;20027;-78
2023/10/28 08:24:45;;;;;;;7.43;4.43;;;;;;;8.24;100.00;99377.47;4949144;28;20080;-78
2023/10/28 08:27:10;;;;;;;6.80;4.07;;;;;;;8.28;100.00;99364.66;4942147;28;20039;-78
2023/10/28 08:29:36;;;;;;;7.77;4.63;;;;;;;8.27;100.00;99358.50;4950490;28;20027;-78
2023/10/28 08:32:01;;;;;;;7.30;5.10;;;;;;;8.49;100.00;99364.78;4947159;28;20065;-78
2023/10/28 08:34:26;;;;;;;6.43;3.97;;;;;;;8.28;100.00;99346.03;4943089;28;20034;-78
2023/10/28 08:36:52;;;;;;;6.13;4.27;;;;;;;8.04;100.00;99322.16;4947844;29;20043;-78
2023/10/28 08:39:18;;;;;;;6.93;3.95;;;;;;;7.94;100.00;99342.03;4949886;28;20023;-78
2023/10/28 08:41:44;;;;;;;7.32;3.30;;;;;;;8.20;100.00;99365.56;4967136;28;20435;-78
2023/10/28 08:44:12;;;;;;;6.50;4.30;;;;;;;8.19;100.00;99358.56;4950013;28;20119;-78
2023/10/28 08:46:39;;;;;;;8.50;4.45;;;;;;;8.18;100.00;99336.47;4945662;28;20039;-77
2023/10/28 08:49:06;;;;;;;6.60;3.70;;;;;;;8.16;100.00;99350.97;4948930;28;20106;-78
2023/10/28 08:51:33;;;;;;;6.90;3.67;;;;;;;7.92;100.00;99333.41;4946897;28;20031;-78
2023/10/28 08:54:02;;;;;;;6.63;3.25;;;;;;;7.94;100.00;99344.69;4957660;28;20395;-78
2023/10/28 08:56:30;;;;;;;6.72;3.75;;;;;;;7.79;100.00;99350.78;4964768;28;20046;-78
2023/10/28 08:58:55;;;;;;;3.90;3.25;;;;;;;8.01;100.00;99372.22;4943670;28;20049;-77
2023/10/28 09:01:22;;;;;;;5.97;4.00;;;;;;;7.99;100.00;99385.66;4965039;28;20055;-78
2023/10/28 09:03:53;;;;;;;6.60;3.78;;;;;;;8.04;100.00;99403.75;4950734;28;20035;-78
2023/10/28 09:06:19;;;;;;;7.80;5.97;;;;;;;8.26;100.00;99418.00;4948667;28;20048;-78
2023/10/28 09:08:45;;;;;;;;;;;;;;;8.25;100.00;99403.88;4945989;29;20027;-78
2023/10/28 09:11:10;;;;;;;13.82;7.35;;;;;;;7.80;100.00;99379.00;4946652;28;19918;-79
2023/10/28 09:13:36;;;;;;;7.35;5.15;;;;;;;7.96;100.00;99409.97;4946757;28;20020;-78
2023/10/28 09:16:04;;;;;;;8.65;5.55;;;;;;;8.06;100.00;99408.88;4948609;28;20119;-77
2023/10/28 09:18:39;;;;;;;5.07;3.28;;;;;;;7.80;100.00;99394.13;4948645;28;20098;-78
2023/10/28 09:21:09;;;;;;;5.75;3.50;;;;;;;8.11;100.00;99422.47;4950286;28;20074;-78
2023/10/28 09:23:39;;;;;;;5.78;3.40;;;;;;;8.05;100.00;99405.38;4950132;28;20047;-78
2023/10/28 09:26:05;;;;;;;7.30;3.70;;;;;;;8.29;100.00;99430.94;4964669;28;20460;-78
2023/10/28 09:28:33;;;;;;;;;;;;;;;8.33;100.00;99424.25;4950444;28;20020;-77
2023/10/28 09:31:05;;;;;;;4.25;3.10;;;;;;;7.91;100.00;99398.19;4945228;28;19914;-78
2023/10/28 09:33:30;;;;;;;5.40;2.78;;;;;;;7.91;100.00;99409.63;4950069;28;20036;-78
2023/10/28 09:35:56;;;;;;;10.10;4.38;;;;;;;7.93;100.00;99426.22;4896936;28;1046149;-78
2023/10/28 09:38:25;;;;;;;4.82;3.35;;;;;;;8.00;100.00;99440.47;4951712;28;20067;-78
2023/10/28 09:40:50;;;;;;;5.07;4.00;;;;;;;8.09;100.00;99451.88;4945527;28;20049;-78
2023/10/28 09:43:16;;;;;;;17.95;8.77;;;;;;;8.38;100.00;99472.44;4936233;28;20484;-78
2023/10/28 09:45:50;;;;;;;31.27;21.10;;;;;;;8.16;100.00;99463.44;4948945;28;20044;-78
2023/10/28 09:48:17;;;;;;;8.45;4.85;;;;;;;8.14;100.00;99464.63;4942294;28;20287;-78
2023/10/28 09:50:52;;;;;;;11.52;8.27;;;;;;;8.12;100.00;99463.97;4934866;28;20031;-78
2023/10/28 09:53:31;;;;;;;8.80;4.30;;;;;;;8.10;100.00;99473.97;4950332;28;20039;-78
2023/10/28 09:55:57;;;;;;;6.80;4.68;;;;;;;8.10;100.00;99487.25;4932216;28;20051;-78
2023/10/28 09:58:51;;;;;;;11.18;7.38;;;;;;;8.12;100.00;99482.59;4952050;29;20027;-78
2023/10/28 10:01:30;;;;;;;8.02;4.53;;;;;;;7.97;100.00;99463.94;4951460;28;20054;-78
2023/10/28 10:04:25;;;;;;;19.00;13.48;;;;;;;8.02;100.00;99491.63;4953657;29;20063;-78
2023/10/28 10:06:51;;;;;;;15.18;10.00;;;;;;;7.89;100.00;99486.09;4965912;28;20035;-78
2023/10/28 10:09:18;;;;;;;11.32;7.35;;;;;;;7.96;100.00;99481.72;4953209;28;20085;-78
2023/10/28 10:11:44;;;;;;;14.15;8.18;;;;;;;8.03;100.00;99495.13;4953769;28;20488;-77
2023/10/28 10:14:10;;;;;;;10.65;6.38;;;;;;;7.90;100.00;99482.41;4968559;28;20035;-78
2023/10/28 10:17:00;;;;;;;10.02;5.43;;;;;;;8.02;100.00;99494.28;4951856;28;20031;-78
2023/10/28 10:19:33;;;;;;;10.55;5.82;;;;;;;7.89;100.00;99471.94;4953496;28;20041;-78
2023/10/28 10:22:02;;;;;;;11.65;6.50;;;;;;;8.24;100.00;99490.00;4937884;29;20064;-79
2023/10/28 10:24:28;;;;;;;8.95;5.65;;;;;;;8.02;100.00;99461.56;4952744;28;20377;-78
2023/10/28 10:26:56;;;;;;;8.95;5.97;;;;;;;8.14;100.00;99465.44;4949186;28;20039;-78
2023/10/28 10:29:26;;;;;;;15.10;8.70;;;;;;;8.14;100.00;99449.50;4954441;28;20039;-78
2023/10/28 10:31:52;;;;;;;11.77;6.85;;;;;;;8.27;100.00;99459.56;4953738;28;20114;-78
2023/10/28 10:34:34;;;;;;;;;;;;;;;7.98;100.00;99429.22;4954780;28;20125;-78
2023/10/28 10:37:00;;;;;;;13.10;7.35;;;;;;;8.21;100.00;99462.91;4966055;28;19914;-78
2023/10/28 10:39:26;;;;;;;16.20;8.15;;;;;;;8.37;100.00;99462.78;4952041;28;20038;-77
2023/10/28 10:41:55;;;;;;;12.82;7.00;;;;;;;8.60;100.00;99470.75;4947341;28;20495;-78
2023/10/28 10:44:36;;;;;;;15.77;8.38;;;;;;;8.22;100.00;99414.06;4951688;29;20077;-78
2023/10/28 10:47:02;;;;;;;12.02;7.72;;;;;;;8.50;100.00;99440.09;4936436;29;20074;-78
2023/10/28 10:49:31;;;;;;;19.63;8.85;;;;;;;8.41;100.00;99423.41;4941710;28;20034;-77
2023/10/28 10:51:59;;;;;;;12.98;7.15;;;;;;;8.14;100.00;99417.59;4952325;28;20089;-78
2023/10/28 10:54:32;;;;;;;12.35;7.50;;;;;;;8.20;100.00;99426.72;4945199;28;20023;-78
2023/10/28 10:56:58;;;;;;;16.08;9.48;;;;;;;8.32;100.00;99446.53;4945553;28;20032;-78
2023/10/28 10:59:28;;;;;;;13.60;7.68;;;;;;;8.15;100.00;99435.22;4950309;28;20027;-79
2023/10/28 11:01:55;;;;;;;14.32;7.90;;;;;;;8.33;100.00;99456.16;4963869;28;20035;-79
2023/10/28 11:04:20;;;;;;;14.15;8.55;;;;;;;8.06;100.00;99428.31;4950418;28;20028;-77
2023/10/28 11:06:46;;;;;;;11.47;7.93;;;;;;;8.31;100.00;99460.84;4941564;28;20039;-78
2023/10/28 11:09:15;;;;;;;16.48;9.20;;;;;;;8.24;100.00;99441.28;4947201;28;20071;-78
2023/10/28 11:11:41;;;;;;;11.77;7.10;;;;;;;8.11;100.00;99438.41;4940987;28;20024;-76
2023/10/28 11:14:07;;;;;;;16.55;9.95;;;;;;;8.00;100.00;99444.97;4934196;29;20447;-77
2023/10/28 11:16:33;;;;;;;14.88;8.35;;;;;;;8.21;100.00;99482.34;4936693;28;20020;-77
2023/10/28 11:19:03;;;;;;;21.67;9.00;;;;;;;8.31;100.00;99497.22;4946380;29;20042;-77
2023/10/28 11:21:32;;;;;;;18.80;11.70;;;;;;;8.19;100.00;99494.16;4958514;28;20377;-77
2023/10/28 11:23:58;;;;;;;15.27;8.32;;;;;;;8.12;100.00;99488.72;4950100;28;20024;-79
2023/10/28 11:26:24;;;;;;;15.75;7.88;;;;;;;8.13;100.00;99481.59;4965718;28;20031;-79
2023/10/28 11:28:49;;;;;;;15.95;8.88;;;;;;;8.24;100.00;99495.31;4930630;29;20491;-79